createdAt,value
2022-08-11T00:01:12.806Z,55.13
2022-08-11T00:04:15.508Z,56.31
2022-08-11T00:07:17.265Z,56.24
2022-08-11T00:10:20.417Z,55.18
2022-08-11T00:13:22.511Z,57.68
2022-08-11T00:16:25.703Z,57.58
2022-08-11T00:20:12.299Z,56.63
2022-08-11T00:22:50.416Z,56.57
2022-08-11T00:25:52.428Z,57.02
2022-08-11T00:28:54.716Z,58.06
2022-08-11T00:31:58.739Z,57.52
2022-08-11T00:35:52.076Z,56.76
2022-08-11T00:38:24.374Z,57.75
2022-08-11T00:41:32.351Z,58.79
2022-08-11T00:44:40.214Z,56.97
2022-08-11T00:47:48.767Z,59.30
2022-08-11T00:51:00.227Z,59.49
2022-08-11T00:54:06.513Z,59.97
2022-08-11T00:57:36.007Z,57.62
2022-08-11T01:00:49.673Z,58.55
2022-08-11T01:04:07.549Z,58.45
2022-08-11T01:08:02.875Z,58.98
2022-08-11T01:11:09.011Z,60.34
2022-08-11T01:14:33.978Z,59.98
2022-08-11T01:17:54.691Z,59.91
2022-08-11T01:21:14.466Z,59.75
2022-08-11T01:24:34.950Z,58.58
2022-08-11T01:27:57.851Z,60.28
2022-08-11T01:31:17.841Z,59.72
2022-08-11T01:34:34.208Z,60.82
2022-08-11T01:37:51.269Z,60.72
2022-08-11T01:41:10.814Z,60.19
2022-08-11T01:44:18.347Z,60.21
2022-08-11T01:47:26.790Z,61.04
2022-08-11T01:50:37.672Z,61.10
2022-08-11T01:53:47.013Z,62.24
2022-08-11T01:56:58.465Z,61.60
2022-08-11T02:00:06.732Z,63.04
2022-08-11T02:03:11.835Z,61.57
2022-08-11T02:06:19.621Z,62.10
2022-08-11T02:09:26.932Z,62.72
2022-08-11T02:12:52.693Z,62.88
2022-08-11T02:16:03.970Z,63.74
2022-08-11T02:19:11.404Z,62.95
2022-08-11T02:22:16.461Z,65.11
2022-08-11T02:25:22.584Z,64.23
2022-08-11T02:28:28.109Z,64.00
2022-08-11T02:32:24.342Z,63.90
2022-08-11T02:35:08.890Z,63.16
2022-08-11T02:38:14.877Z,64.02
2022-08-11T02:41:22.128Z,64.15
2022-08-11T02:44:31.639Z,64.18
2022-08-11T02:47:40.087Z,64.75
2022-08-11T02:50:47.990Z,65.74
2022-08-11T02:53:58.111Z,66.05
2022-08-11T02:57:02.826Z,65.63
2022-08-11T03:00:08.022Z,65.96
2022-08-11T03:03:15.381Z,67.29
2022-08-11T03:06:24.100Z,66.91
2022-08-11T03:09:30.018Z,66.57
2022-08-11T03:12:36.708Z,67.16
2022-08-11T03:15:47.833Z,66.83
2022-08-11T03:18:54.106Z,67.70
2022-08-11T03:22:06.268Z,66.83
2022-08-11T03:25:13.121Z,66.31
2022-08-11T03:28:21.211Z,66.96
2022-08-11T03:31:27.243Z,66.87
2022-08-11T03:34:31.352Z,67.21
2022-08-11T03:37:40.917Z,67.08
2022-08-11T03:40:51.984Z,66.71
2022-08-11T03:44:00.153Z,67.91
2022-08-11T03:47:24.891Z,67.14
2022-08-11T03:50:32.138Z,68.66
2022-08-11T03:53:40.898Z,69.04
2022-08-11T03:56:57.483Z,67.99
2022-08-11T04:00:05.916Z,68.59
2022-08-11T04:03:31.062Z,69.14
2022-08-11T04:06:47.728Z,67.48
2022-08-11T04:10:13.429Z,68.89
2022-08-11T04:13:41.945Z,69.73
2022-08-11T04:16:46.773Z,69.96
2022-08-11T04:20:04.324Z,69.05
2022-08-11T04:24:34.742Z,69.89
2022-08-11T04:26:54.533Z,69.30
2022-08-11T04:30:05.935Z,69.74
2022-08-11T04:33:34.900Z,70.76
2022-08-11T04:36:53.982Z,69.38
2022-08-11T04:40:31.102Z,69.56
2022-08-11T04:44:02.881Z,69.95
2022-08-11T04:47:14.376Z,70.31
2022-08-11T04:50:20.996Z,70.59
2022-08-11T04:53:30.160Z,70.49
2022-08-11T04:56:33.188Z,69.90
2022-08-11T04:59:49.058Z,71.08
2022-08-11T05:03:17.397Z,72.05
2022-08-11T05:06:39.729Z,71.32
2022-08-11T05:10:02.569Z,70.72
2022-08-11T05:13:06.023Z,71.43
2022-08-11T05:16:09.757Z,69.96
2022-08-11T05:19:16.184Z,69.87
2022-08-11T05:22:20.334Z,70.01
2022-08-11T05:26:45.269Z,69.93
2022-08-11T05:28:51.869Z,69.34
2022-08-11T05:31:58.888Z,69.49
2022-08-11T05:35:02.486Z,69.54
2022-08-11T05:38:09.714Z,68.84
2022-08-11T05:41:13.130Z,69.94
2022-08-11T05:44:19.869Z,70.21
2022-08-11T05:47:24.625Z,70.11
2022-08-11T05:50:31.044Z,70.30
2022-08-11T05:53:36.026Z,70.02
2022-08-11T05:56:50.901Z,70.33
2022-08-11T05:59:58.677Z,70.37
2022-08-11T06:03:01.586Z,69.86
2022-08-11T06:06:08.327Z,70.06
2022-08-11T06:09:10.294Z,70.35
2022-08-11T06:12:18.988Z,70.91
2022-08-11T06:15:20.759Z,71.46
2022-08-11T06:18:22.925Z,70.53
2022-08-11T06:21:24.846Z,70.03
2022-08-11T06:24:26.963Z,70.35
2022-08-11T06:27:31.644Z,71.47
2022-08-11T06:30:34.208Z,71.07
2022-08-11T06:33:39.549Z,69.99
2022-08-11T06:36:46.531Z,70.27
2022-08-11T06:39:52.427Z,69.00
2022-08-11T06:42:58.545Z,69.29
2022-08-11T06:46:01.576Z,68.27
2022-08-11T06:49:03.894Z,68.80
2022-08-11T06:52:07.352Z,68.12
2022-08-11T06:55:57.640Z,68.70
2022-08-11T06:58:53.609Z,69.79
2022-08-11T07:02:07.399Z,69.68
2022-08-11T07:05:11.973Z,68.02
2022-08-11T07:08:35.945Z,67.25
2022-08-11T07:12:25.337Z,67.75
2022-08-11T07:16:12.655Z,68.21
2022-08-11T07:18:55.749Z,69.52
2022-08-11T07:22:01.049Z,68.57
2022-08-11T07:25:08.673Z,68.52
2022-08-11T07:28:22.763Z,69.51
2022-08-11T07:31:35.639Z,69.12
2022-08-11T07:34:40.520Z,67.66
2022-08-11T07:37:43.671Z,67.12
2022-08-11T07:40:47.773Z,68.26
2022-08-11T07:43:51.597Z,67.32
2022-08-11T07:46:55.060Z,67.79
2022-08-11T07:49:56.896Z,66.73
2022-08-11T07:52:59.528Z,66.73
2022-08-11T07:56:01.877Z,67.23
2022-08-11T07:59:08.262Z,66.61
2022-08-11T08:02:12.702Z,65.14
2022-08-11T08:05:15.558Z,64.42
2022-08-11T08:08:17.637Z,64.92
2022-08-11T08:11:23.933Z,64.93
2022-08-11T08:14:29.521Z,63.27
2022-08-11T08:17:32.923Z,62.66
2022-08-11T08:20:36.535Z,62.46
2022-08-11T08:23:38.661Z,62.87
2022-08-11T08:26:40.897Z,62.70
2022-08-11T08:29:43.914Z,62.28
2022-08-11T08:32:47.144Z,63.08
2022-08-11T08:35:54.798Z,62.68
2022-08-11T08:38:58.057Z,60.65
2022-08-11T08:42:01.867Z,60.71
2022-08-11T08:45:05.320Z,61.08
2022-08-11T08:48:11.965Z,60.28
2022-08-11T08:51:14.276Z,61.37
2022-08-11T08:54:17.676Z,59.93
2022-08-11T08:57:19.730Z,59.01
2022-08-11T09:00:23.597Z,58.28
2022-08-11T09:04:06.605Z,58.90
2022-08-11T09:06:51.619Z,58.09
2022-08-11T09:09:56.933Z,58.14
2022-08-11T09:12:59.492Z,55.74
2022-08-11T09:16:01.315Z,53.04
2022-08-11T09:19:04.574Z,54.79
2022-08-11T09:22:06.700Z,52.66
2022-08-11T09:25:08.737Z,52.56
2022-08-11T09:28:11.416Z,52.73
2022-08-11T09:31:14.165Z,53.63
2022-08-11T09:34:17.268Z,54.57
2022-08-11T09:37:53.880Z,52.96
2022-08-11T09:40:43.680Z,54.47
2022-08-11T09:43:47.269Z,51.91
2022-08-11T09:46:49.909Z,50.46
2022-08-11T09:49:56.962Z,49.90
2022-08-11T09:53:37.157Z,50.43
2022-08-11T09:56:23.202Z,50.83
2022-08-11T09:59:24.898Z,50.91
2022-08-11T10:02:28.040Z,48.33
2022-08-11T10:05:32.357Z,51.34
2022-08-11T10:08:37.506Z,48.71
2022-08-11T10:11:40.753Z,48.60
2022-08-11T10:14:44.918Z,48.96
2022-08-11T10:17:48.817Z,49.00
2022-08-11T10:20:53.147Z,48.21
2022-08-11T10:24:01.356Z,47.92
2022-08-11T10:27:07.843Z,47.31
2022-08-11T10:30:10.384Z,47.94
2022-08-11T10:33:18.975Z,45.85
2022-08-11T10:36:38.024Z,45.93
2022-08-11T10:39:40.591Z,46.11
2022-08-11T10:42:57.218Z,46.23
2022-08-11T10:45:59.945Z,45.12
2022-08-11T10:49:01.932Z,45.58
2022-08-11T10:52:05.245Z,46.55
2022-08-11T10:55:07.249Z,44.22
2022-08-11T10:58:09.922Z,44.69
2022-08-11T11:01:12.373Z,46.13
2022-08-11T11:04:15.732Z,46.58
2022-08-11T11:07:20.976Z,46.90
2022-08-11T11:10:22.740Z,45.38
2022-08-11T11:13:24.931Z,43.07
2022-08-11T11:16:27.367Z,43.67
2022-08-11T11:19:29.327Z,45.11
2022-08-11T11:22:32.628Z,44.63
2022-08-11T11:25:44.984Z,43.68
2022-08-11T11:29:03.077Z,45.71
2022-08-11T11:32:25.821Z,44.43
2022-08-11T11:35:36.305Z,43.66
2022-08-11T11:38:40.544Z,47.00
2022-08-11T11:41:42.775Z,41.74
2022-08-11T11:44:44.842Z,43.27
2022-08-11T11:47:47.937Z,41.79
2022-08-11T11:50:53.711Z,41.73
2022-08-11T11:53:58.892Z,41.21
2022-08-11T11:57:01.719Z,41.80
2022-08-11T12:00:04.366Z,42.28
2022-08-11T12:03:07.857Z,43.74
2022-08-11T12:06:11.055Z,44.01
2022-08-11T12:09:14.988Z,42.54
2022-08-11T12:12:19.588Z,42.62
2022-08-11T12:16:04.197Z,43.05
2022-08-11T12:18:45.842Z,40.91
2022-08-11T12:21:51.516Z,41.85
2022-08-11T12:25:04.669Z,42.68
2022-08-11T12:28:06.540Z,40.57
2022-08-11T12:31:08.534Z,41.54
2022-08-11T12:34:11.070Z,39.44
2022-08-11T12:37:14.073Z,42.51
2022-08-11T12:40:42.648Z,41.47
2022-08-11T12:43:44.396Z,42.55
2022-08-11T12:46:59.813Z,41.63
2022-08-11T12:50:01.912Z,42.37
2022-08-11T12:53:07.057Z,38.81
2022-08-11T12:56:11.157Z,40.43
2022-08-11T12:59:13.867Z,38.56
2022-08-11T13:02:16.366Z,39.03
2022-08-11T13:05:18.273Z,38.76
2022-08-11T13:08:22.038Z,38.34
2022-08-11T13:11:25.488Z,38.49
2022-08-11T13:14:47.136Z,40.90
2022-08-11T13:17:49.765Z,41.04
2022-08-11T13:20:51.980Z,40.72
2022-08-11T13:24:00.636Z,39.67
2022-08-11T13:27:06.578Z,41.25
2022-08-11T13:30:08.677Z,41.94
2022-08-11T13:33:11.331Z,40.51
2022-08-11T13:36:13.241Z,40.27
2022-08-11T13:39:15.227Z,41.54
2022-08-11T13:42:20.421Z,41.38
2022-08-11T13:45:23.189Z,40.09
2022-08-11T13:48:25.759Z,40.67
2022-08-11T13:51:34.030Z,39.70
2022-08-11T13:54:37.642Z,40.95
2022-08-11T13:58:06.770Z,38.91
2022-08-11T14:02:03.631Z,39.55
2022-08-11T14:04:28.924Z,38.98
2022-08-11T14:07:35.285Z,38.12
2022-08-11T14:10:38.067Z,38.64
2022-08-11T14:13:48.080Z,38.02
2022-08-11T14:16:52.045Z,37.97
2022-08-11T14:19:53.930Z,39.49
2022-08-11T14:22:55.680Z,39.41
2022-08-11T14:26:00.086Z,38.00
2022-08-11T14:29:07.313Z,36.94
2022-08-11T14:32:10.596Z,35.84
2022-08-11T14:35:12.335Z,36.27
2022-08-11T14:38:14.099Z,37.24
2022-08-11T14:41:16.171Z,36.15
2022-08-11T14:44:19.796Z,35.60
2022-08-11T14:47:23.798Z,36.71
2022-08-11T14:50:27.554Z,36.38
2022-08-11T14:53:29.216Z,35.09
2022-08-11T14:56:30.969Z,34.72
2022-08-11T14:59:34.324Z,35.34
2022-08-11T15:02:38.088Z,33.78
2022-08-11T15:05:41.377Z,33.19
2022-08-11T15:08:42.998Z,34.56
2022-08-11T15:11:45.612Z,34.21
2022-08-11T15:14:49.306Z,33.10
2022-08-11T15:17:58.345Z,31.33
2022-08-11T15:20:59.968Z,30.83
2022-08-11T15:24:01.695Z,30.98
2022-08-11T15:27:05.336Z,30.77
2022-08-11T15:30:09.350Z,30.94
2022-08-11T15:33:18.544Z,30.18
2022-08-11T15:36:20.767Z,30.13
2022-08-11T15:39:24.885Z,29.20
2022-08-11T15:42:27.309Z,28.83
2022-08-11T15:45:30.861Z,28.35
2022-08-11T15:48:39.209Z,28.69
2022-08-11T15:51:42.647Z,28.93
2022-08-11T15:54:45.149Z,28.87
2022-08-11T15:57:48.495Z,28.25
2022-08-11T16:00:58.787Z,28.72
2022-08-11T16:04:09.049Z,29.18
2022-08-11T16:07:12.925Z,30.83
2022-08-11T16:10:18.833Z,31.95
2022-08-11T16:13:22.003Z,30.34
2022-08-11T16:16:26.262Z,29.68
2022-08-11T16:19:29.467Z,28.60
2022-08-11T16:22:33.114Z,28.66
2022-08-11T16:27:01.926Z,29.01
2022-08-11T16:28:58.202Z,30.01
2022-08-11T16:32:02.577Z,29.98
2022-08-11T16:35:06.138Z,29.78
2022-08-11T16:38:08.612Z,30.00
2022-08-11T16:41:11.933Z,31.10
2022-08-11T16:44:14.683Z,30.70
2022-08-11T16:47:18.444Z,32.76
2022-08-11T16:50:41.251Z,32.81
2022-08-11T16:53:54.710Z,31.55
2022-08-11T16:57:16.133Z,32.21
2022-08-11T17:00:20.241Z,33.85
2022-08-11T17:03:23.263Z,32.52
2022-08-11T17:06:25.055Z,32.36
2022-08-11T17:09:29.795Z,33.72
2022-08-11T17:12:33.550Z,34.21
2022-08-11T17:15:36.484Z,33.56
2022-08-11T17:18:45.082Z,34.66
2022-08-11T17:21:48.052Z,36.57
2022-08-11T17:24:50.449Z,35.40
2022-08-11T17:27:52.462Z,35.56
2022-08-11T17:30:54.902Z,36.57
2022-08-11T17:33:58.530Z,34.94
2022-08-11T17:37:00.248Z,35.33
2022-08-11T17:40:03.480Z,35.02
2022-08-11T17:43:06.820Z,33.72
2022-08-11T17:46:08.588Z,35.15
2022-08-11T17:49:12.839Z,36.27
2022-08-11T17:52:14.842Z,35.96
2022-08-11T17:55:17.118Z,36.09
2022-08-11T17:58:40.715Z,37.21
2022-08-11T18:01:44.439Z,37.34
2022-08-11T18:04:49.299Z,37.29
2022-08-11T18:07:52.757Z,37.63
2022-08-11T18:10:55.551Z,38.02
2022-08-11T18:13:57.430Z,37.92
2022-08-11T18:17:03.847Z,37.92
2022-08-11T18:20:10.054Z,37.20
2022-08-11T18:23:16.372Z,38.05
2022-08-11T18:26:20.976Z,38.13
2022-08-11T18:29:22.771Z,37.51
2022-08-11T18:32:46.211Z,38.06
2022-08-11T18:35:50.566Z,37.49
2022-08-11T18:38:53.296Z,38.01
2022-08-11T18:41:58.242Z,38.19
2022-08-11T18:45:01.640Z,38.00
2022-08-11T18:48:06.480Z,38.12
2022-08-11T18:51:31.558Z,38.19
2022-08-11T18:54:36.707Z,39.33
2022-08-11T18:57:49.528Z,39.56
2022-08-11T19:00:57.471Z,40.49
2022-08-11T19:04:02.278Z,40.13
2022-08-11T19:07:17.375Z,39.62
2022-08-11T19:10:22.032Z,39.67
2022-08-11T19:13:24.429Z,40.80
2022-08-11T19:16:26.443Z,41.55
2022-08-11T19:19:29.216Z,41.62
2022-08-11T19:22:33.095Z,40.02
2022-08-11T19:25:35.319Z,40.71
2022-08-11T19:28:39.935Z,40.45
2022-08-11T19:31:44.927Z,41.00
2022-08-11T19:34:47.569Z,41.68
2022-08-11T19:37:51.571Z,39.25
2022-08-11T19:40:54.391Z,39.49
2022-08-11T19:43:56.302Z,40.21
2022-08-11T19:46:58.874Z,38.77
2022-08-11T19:50:00.806Z,38.89
2022-08-11T19:53:04.134Z,39.77
2022-08-11T19:56:19.393Z,40.70
2022-08-11T19:59:21.521Z,39.04
2022-08-11T20:02:23.410Z,39.04
2022-08-11T20:05:25.474Z,38.88
2022-08-11T20:08:30.071Z,38.88
2022-08-11T20:11:33.588Z,39.49
2022-08-11T20:14:37.098Z,39.27
2022-08-11T20:17:40.256Z,39.69
2022-08-11T20:20:41.864Z,41.00
2022-08-11T20:23:47.345Z,40.07
2022-08-11T20:26:49.458Z,41.76
2022-08-11T20:29:51.307Z,39.83
2022-08-11T20:32:52.994Z,40.68
2022-08-11T20:35:54.669Z,39.90
2022-08-11T20:38:58.527Z,39.68
2022-08-11T20:42:01.470Z,41.94
2022-08-11T20:45:03.564Z,41.29
2022-08-11T20:48:06.668Z,41.55
2022-08-11T20:51:11.513Z,40.89
2022-08-11T20:54:20.161Z,40.33
2022-08-11T20:58:00.106Z,41.59
2022-08-11T21:01:03.853Z,41.37
2022-08-11T21:04:06.241Z,41.05
2022-08-11T21:07:08.216Z,43.40
2022-08-11T21:10:17.231Z,42.60
2022-08-11T21:13:29.319Z,43.51
2022-08-11T21:16:34.237Z,42.44
2022-08-11T21:20:01.118Z,45.75
2022-08-11T21:23:05.586Z,44.33
2022-08-11T21:26:11.185Z,43.83
2022-08-11T21:29:13.712Z,45.90
2022-08-11T21:32:16.733Z,44.20
2022-08-11T21:35:18.846Z,43.11
2022-08-11T21:38:20.631Z,43.75
2022-08-11T21:41:24.329Z,44.12
2022-08-11T21:44:26.678Z,43.66
2022-08-11T21:47:42.544Z,44.34
2022-08-11T21:50:45.807Z,44.35
2022-08-11T21:53:48.339Z,44.89
2022-08-11T21:56:52.499Z,46.33
2022-08-11T21:59:56.820Z,47.50
2022-08-11T22:02:58.840Z,45.75
2022-08-11T22:06:00.532Z,44.43
2022-08-11T22:09:02.206Z,45.29
2022-08-11T22:12:30.126Z,46.28
2022-08-11T22:15:27.585Z,45.38
2022-08-11T22:18:29.995Z,44.60
2022-08-11T22:22:03.108Z,47.33
2022-08-11T22:24:53.934Z,45.85
2022-08-11T22:27:57.097Z,46.83
2022-08-11T22:31:00.095Z,46.88
2022-08-11T22:34:03.140Z,47.12
2022-08-11T22:37:05.348Z,47.90
2022-08-11T22:40:07.946Z,45.21
2022-08-11T22:43:11.037Z,45.68
2022-08-11T22:46:12.976Z,48.17
2022-08-11T22:49:16.246Z,47.81
2022-08-11T22:52:18.687Z,48.55
2022-08-11T22:55:20.880Z,46.52
2022-08-11T22:58:24.433Z,44.97
2022-08-11T23:01:26.299Z,47.24
2022-08-11T23:04:28.325Z,48.10
2022-08-11T23:07:50.038Z,47.49
2022-08-11T23:10:52.309Z,48.65
2022-08-11T23:13:55.630Z,48.77
2022-08-11T23:16:57.531Z,48.39
2022-08-11T23:20:09.921Z,48.58
2022-08-11T23:23:21.814Z,48.73
2022-08-11T23:26:24.714Z,46.57
2022-08-11T23:29:28.447Z,49.19
2022-08-11T23:32:30.921Z,46.72
2022-08-11T23:35:39.884Z,48.71
2022-08-11T23:38:42.307Z,46.94
2022-08-11T23:41:44.195Z,47.49
2022-08-11T23:44:47.553Z,49.30
2022-08-11T23:47:50.858Z,48.32
2022-08-11T23:50:52.909Z,48.66
2022-08-11T23:53:55.497Z,51.77
2022-08-11T23:56:57.361Z,47.96
